sensor_id;sensor_type;location;lat;lon;timestamp;temperature;humidity
31687;DHT22;18285;51.330;4.946;2023-10-19T00:03:54;24.70;46.10
31687;DHT22;18285;51.330;4.946;2023-10-19T00:28:09;24.70;46.30
31687;DHT22;18285;51.330;4.946;2023-10-19T00:52:23;24.70;46.80
31687;DHT22;18285;51.330;4.946;2023-10-19T01:16:34;24.80;46.40
31687;DHT22;18285;51.330;4.946;2023-10-19T01:40:46;24.70;46.40
31687;DHT22;18285;51.330;4.946;2023-10-19T02:04:56;24.70;46.50
31687;DHT22;18285;51.330;4.946;2023-10-19T02:29:10;24.60;46.60
31687;DHT22;18285;51.330;4.946;2023-10-19T02:53:21;24.70;46.40
31687;DHT22;18285;51.330;4.946;2023-10-19T03:17:31;24.70;46.40
31687;DHT22;18285;51.330;4.946;2023-10-19T03:41:42;24.70;46.30
31687;DHT22;18285;51.330;4.946;2023-10-19T04:05:53;24.80;46.40
31687;DHT22;18285;51.330;4.946;2023-10-19T04:30:04;24.80;46.10
31687;DHT22;18285;51.330;4.946;2023-10-19T04:54:15;24.80;46.30
31687;DHT22;18285;51.330;4.946;2023-10-19T05:18:26;24.90;46.30
31687;DHT22;18285;51.330;4.946;2023-10-19T05:42:36;24.80;46.50
31687;DHT22;18285;51.330;4.946;2023-10-19T06:06:47;24.80;46.60
31687;DHT22;18285;51.330;4.946;2023-10-19T06:30:58;24.80;46.60
31687;DHT22;18285;51.330;4.946;2023-10-19T06:55:10;24.80;46.40
31687;DHT22;18285;51.330;4.946;2023-10-19T07:19:24;24.80;46.40
31687;DHT22;18285;51.330;4.946;2023-10-19T07:43:35;24.80;46.40
31687;DHT22;18285;51.330;4.946;2023-10-19T08:07:46;24.80;46.40
31687;DHT22;18285;51.330;4.946;2023-10-19T08:31:57;24.80;46.40
31687;DHT22;18285;51.330;4.946;2023-10-19T08:56:08;24.90;46.40
31687;DHT22;18285;51.330;4.946;2023-10-19T09:20:20;24.90;46.30
31687;DHT22;18285;51.330;4.946;2023-10-19T09:44:45;25.00;46.40
31687;DHT22;18285;51.330;4.946;2023-10-19T10:09:01;24.90;46.40
31687;DHT22;18285;51.330;4.946;2023-10-19T10:33:40;24.90;46.30
31687;DHT22;18285;51.330;4.946;2023-10-19T10:57:51;25.00;46.40
31687;DHT22;18285;51.330;4.946;2023-10-19T11:22:02;25.00;46.50
31687;DHT22;18285;51.330;4.946;2023-10-19T11:46:13;25.00;46.30
31687;DHT22;18285;51.330;4.946;2023-10-19T12:10:38;25.00;46.30
31687;DHT22;18285;51.330;4.946;2023-10-19T12:34:49;25.00;46.30
31687;DHT22;18285;51.330;4.946;2023-10-19T12:59:08;25.00;46.50
31687;DHT22;18285;51.330;4.946;2023-10-19T13:23:18;25.00;46.80
31687;DHT22;18285;51.330;4.946;2023-10-19T13:47:32;25.10;47.00
31687;DHT22;18285;51.330;4.946;2023-10-19T14:11:44;25.10;47.10
31687;DHT22;18285;51.330;4.946;2023-10-19T14:35:57;25.10;47.50
31687;DHT22;18285;51.330;4.946;2023-10-19T15:00:10;25.20;47.80
31687;DHT22;18285;51.330;4.946;2023-10-19T15:24:23;25.20;48.60
31687;DHT22;18285;51.330;4.946;2023-10-19T15:48:34;25.20;51.00
31687;DHT22;18285;51.330;4.946;2023-10-19T16:12:45;25.20;51.40
31687;DHT22;18285;51.330;4.946;2023-10-19T16:36:56;25.10;50.60
31687;DHT22;18285;51.330;4.946;2023-10-19T17:01:08;25.20;49.70
31687;DHT22;18285;51.330;4.946;2023-10-19T17:25:22;25.20;49.30
31687;DHT22;18285;51.330;4.946;2023-10-19T17:49:34;25.10;49.60
31687;DHT22;18285;51.330;4.946;2023-10-19T18:13:45;25.20;49.20
31687;DHT22;18285;51.330;4.946;2023-10-19T18:37:56;25.20;49.20
31687;DHT22;18285;51.330;4.946;2023-10-19T19:02:07;25.40;48.80
31687;DHT22;18285;51.330;4.946;2023-10-19T19:26:19;25.30;49.00
31687;DHT22;18285;51.330;4.946;2023-10-19T19:50:30;25.00;49.70
31687;DHT22;18285;51.330;4.946;2023-10-19T20:14:41;25.20;49.20
31687;DHT22;18285;51.330;4.946;2023-10-19T20:38:52;25.10;49.00
31687;DHT22;18285;51.330;4.946;2023-10-19T21:03:06;25.20;48.80
31687;DHT22;18285;51.330;4.946;2023-10-19T21:27:17;25.20;48.80
31687;DHT22;18285;51.330;4.946;2023-10-19T21:51:28;25.20;48.60
31687;DHT22;18285;51.330;4.946;2023-10-19T22:15:40;25.20;48.60
31687;DHT22;18285;51.330;4.946;2023-10-19T22:39:51;25.20;48.40
31687;DHT22;18285;51.330;4.946;2023-10-19T23:04:01;25.20;48.40
31687;DHT22;18285;51.330;4.946;2023-10-19T23:28:12;25.20;48.30
31687;DHT22;18285;51.330;4.946;2023-10-19T23:52:25;25.20;48.30
